Time;durP1;ratioP1;P1;durP2;ratioP2;P2;SDS_P1;SDS_P2;PMS_P1;PMS_P2;Temp;Humidity;BMP_temperature;BMP_pressure;BME280_temperature;BME280_humidity;BME280_pressure;Samples;Min_cycle;Max_cycle;Signal;HPM_P1;HPM_P2
2023/08/14 00:02:22;;;;;;;214.02;54.25;;;;;;;;;;5010344;28;20061;-43
2023/08/14 00:04:52;;;;;;;194.70;53.50;;;;;;;;;;5009468;28;20077;-44
2023/08/14 00:07:18;;;;;;;209.95;52.10;;;;;;;;;;5010936;28;20058;-43
2023/08/14 00:09:45;;;;;;;202.68;52.78;;;;;;;;;;5012047;28;20030;-42
2023/08/14 00:12:12;;;;;;;204.15;50.72;;;;;;;;;;5014227;28;20483;-43
2023/08/14 00:14:39;;;;;;;198.35;51.38;;;;;;;;;;5014004;28;20076;-38
2023/08/14 00:17:06;;;;;;;194.50;50.70;;;;;;;;;;5014250;28;20064;-43
2023/08/14 00:19:33;;;;;;;184.27;48.25;;;;;;;;;;5014221;28;20030;-43
2023/08/14 00:22:00;;;;;;;188.43;49.05;;;;;;;;;;5013949;28;20026;-41
2023/08/14 00:24:27;;;;;;;180.50;48.63;;;;;;;;;;5013990;28;20184;-43
2023/08/14 00:26:54;;;;;;;191.60;45.38;;;;;;;;;;5013513;28;20022;-43
2023/08/14 00:29:21;;;;;;;176.43;42.50;;;;;;;;;;5013667;28;20034;-44
2023/08/14 00:31:48;;;;;;;179.45;46.47;;;;;;;;;;5014224;28;20116;-43
2023/08/14 00:34:15;;;;;;;173.18;44.45;;;;;;;;;;5013736;28;20065;-45
2023/08/14 00:36:42;;;;;;;148.10;42.58;;;;;;;;;;5013240;28;20038;-43
2023/08/14 00:39:09;;;;;;;153.20;42.45;;;;;;;;;;5013432;28;20030;-39
2023/08/14 00:41:37;;;;;;;159.57;43.78;;;;;;;;;;5013831;28;20044;-42
2023/08/14 00:44:04;;;;;;;166.23;43.85;;;;;;;;;;5013217;28;20514;-43
2023/08/14 00:46:32;;;;;;;171.25;44.92;;;;;;;;;;5013563;28;20061;-43
2023/08/14 00:49:00;;;;;;;161.23;43.40;;;;;;;;;;5013430;28;20030;-42
2023/08/14 00:51:28;;;;;;;155.50;40.92;;;;;;;;;;5013715;28;20042;-42
2023/08/14 00:53:55;;;;;;;160.02;43.03;;;;;;;;;;5013317;28;20479;-44
2023/08/14 00:56:23;;;;;;;163.02;42.83;;;;;;;;;;5012705;28;20026;-41
2023/08/14 00:58:50;;;;;;;164.48;41.55;;;;;;;;;;5013444;28;20026;-42
2023/08/14 01:01:18;;;;;;;152.50;41.50;;;;;;;;;;4995838;28;20033;-43
2023/08/14 01:03:45;;;;;;;145.07;39.90;;;;;;;;;;5012861;28;20026;-45
2023/08/14 01:06:12;;;;;;;162.38;41.38;;;;;;;;;;5012923;28;20078;-43
2023/08/14 01:08:39;;;;;;;149.52;38.53;;;;;;;;;;5012803;28;20034;-44
2023/08/14 01:11:12;;;;;;;149.60;39.53;;;;;;;;;;5013167;28;20025;-43
2023/08/14 01:13:39;;;;;;;141.38;37.15;;;;;;;;;;4991266;28;20404;-42
2023/08/14 01:16:09;;;;;;;122.38;36.63;;;;;;;;;;5009439;28;20022;-44
2023/08/14 01:18:38;;;;;;;125.38;37.00;;;;;;;;;;5013218;28;20045;-44
2023/08/14 01:21:05;;;;;;;129.60;36.85;;;;;;;;;;5012441;28;20121;-41
2023/08/14 01:23:42;;;;;;;124.43;36.42;;;;;;;;;;5012952;28;20101;-45
2023/08/14 01:26:09;;;;;;;117.22;34.70;;;;;;;;;;5012879;28;20448;-43
2023/08/14 01:28:36;;;;;;;113.22;34.88;;;;;;;;;;5012958;28;20112;-41
2023/08/14 01:31:03;;;;;;;126.28;35.92;;;;;;;;;;5012953;28;20049;-43
2023/08/14 01:33:30;;;;;;;119.30;33.13;;;;;;;;;;5012708;28;20042;-43
2023/08/14 01:36:09;;;;;;;111.03;32.72;;;;;;;;;;5012806;28;20120;-43
2023/08/14 01:38:40;;;;;;;112.88;31.95;;;;;;;;;;5012520;28;20034;-43
2023/08/14 01:41:07;;;;;;;100.80;32.47;;;;;;;;;;5012398;28;20072;-43
2023/08/14 01:43:48;;;;;;;108.82;30.33;;;;;;;;;;5012715;28;20038;-43
2023/08/14 01:46:15;;;;;;;110.70;31.38;;;;;;;;;;5012372;28;20026;-44
2023/08/14 01:48:43;;;;;;;105.88;30.48;;;;;;;;;;5012555;28;20084;-43
2023/08/14 01:51:11;;;;;;;101.07;29.67;;;;;;;;;;5012398;28;20025;-42
2023/08/14 01:53:38;;;;;;;104.35;29.30;;;;;;;;;;5012107;28;20088;-43
2023/08/14 01:56:05;;;;;;;97.35;29.40;;;;;;;;;;5012503;28;20040;-45
2023/08/14 01:58:32;;;;;;;108.80;28.27;;;;;;;;;;5012291;28;20492;-43
2023/08/14 02:00:59;;;;;;;110.63;27.90;;;;;;;;;;5011957;28;20072;-46
2023/08/14 02:03:26;;;;;;;113.13;30.00;;;;;;;;;;5011773;28;20029;-46
2023/08/14 02:05:53;;;;;;;95.13;27.50;;;;;;;;;;5011257;28;20045;-45
2023/08/14 02:08:20;;;;;;;88.85;28.83;;;;;;;;;;5011929;28;20030;-46
2023/08/14 02:10:47;;;;;;;113.32;28.70;;;;;;;;;;5010811;28;20475;-46
2023/08/14 02:13:14;;;;;;;102.88;26.92;;;;;;;;;;5011484;28;20549;-44
2023/08/14 02:15:41;;;;;;;94.20;27.05;;;;;;;;;;5011304;28;20419;-46
2023/08/14 02:18:08;;;;;;;83.50;26.40;;;;;;;;;;5011716;28;20116;-44
2023/08/14 02:20:35;;;;;;;88.90;25.42;;;;;;;;;;5011536;28;20042;-46
2023/08/14 02:23:02;;;;;;;84.55;25.00;;;;;;;;;;5011114;28;20021;-44
2023/08/14 02:25:29;;;;;;;79.50;24.38;;;;;;;;;;5011591;28;20084;-46
2023/08/14 02:27:56;;;;;;;83.15;24.45;;;;;;;;;;5011221;28;20109;-44
2023/08/14 02:30:23;;;;;;;82.30;23.70;;;;;;;;;;5011500;28;20056;-44
2023/08/14 02:32:50;;;;;;;82.03;23.02;;;;;;;;;;5010615;28;20069;-41
2023/08/14 02:35:17;;;;;;;68.15;22.27;;;;;;;;;;5011308;28;20075;-46
2023/08/14 02:37:44;;;;;;;79.75;22.95;;;;;;;;;;5011242;28;20034;-44
2023/08/14 02:40:11;;;;;;;72.72;22.02;;;;;;;;;;5011294;28;20033;-46
2023/08/14 02:42:38;;;;;;;75.00;22.95;;;;;;;;;;5011820;28;20068;-46
2023/08/14 02:45:06;;;;;;;72.80;21.70;;;;;;;;;;5011855;28;20056;-46
2023/08/14 02:47:33;;;;;;;74.47;22.70;;;;;;;;;;5011875;28;20030;-46
2023/08/14 02:50:00;;;;;;;60.38;20.48;;;;;;;;;;5011274;28;20042;-45
2023/08/14 02:52:27;;;;;;;69.30;21.05;;;;;;;;;;5011218;28;20032;-43
2023/08/14 02:54:54;;;;;;;62.35;20.48;;;;;;;;;;5010465;28;20088;-44
2023/08/14 02:57:21;;;;;;;58.10;19.75;;;;;;;;;;5011184;28;20042;-44
2023/08/14 02:59:49;;;;;;;57.50;18.05;;;;;;;;;;5011131;28;20432;-45
2023/08/14 03:02:16;;;;;;;63.10;20.05;;;;;;;;;;5008688;28;20026;-43
2023/08/14 03:04:43;;;;;;;56.83;18.40;;;;;;;;;;5010623;28;20417;-44
2023/08/14 03:07:10;;;;;;;52.08;18.33;;;;;;;;;;5010903;28;20551;-44
2023/08/14 03:09:37;;;;;;;54.70;18.08;;;;;;;;;;5011114;28;20033;-45
2023/08/14 03:12:04;;;;;;;58.03;18.30;;;;;;;;;;5011128;28;20108;-45
2023/08/14 03:14:31;;;;;;;55.53;17.55;;;;;;;;;;4993037;28;20037;-43
2023/08/14 03:16:58;;;;;;;57.53;18.20;;;;;;;;;;5010990;28;20081;-44
2023/08/14 03:19:25;;;;;;;60.40;17.67;;;;;;;;;;5010941;28;20120;-45
2023/08/14 03:21:52;;;;;;;60.70;18.27;;;;;;;;;;5010912;28;20022;-46
2023/08/14 03:24:20;;;;;;;59.63;17.10;;;;;;;;;;5010718;28;20065;-46
2023/08/14 03:26:48;;;;;;;51.67;16.02;;;;;;;;;;4993223;28;20026;-43
2023/08/14 03:29:15;;;;;;;49.28;15.88;;;;;;;;;;5010663;28;20022;-46
2023/08/14 03:31:42;;;;;;;47.42;15.95;;;;;;;;;;5010947;28;20108;-46
2023/08/14 03:34:09;;;;;;;50.10;16.38;;;;;;;;;;5010674;28;20555;-46
2023/08/14 03:36:36;;;;;;;51.95;15.88;;;;;;;;;;5008160;28;20480;-46
2023/08/14 03:39:03;;;;;;;47.67;16.20;;;;;;;;;;5010652;28;20088;-44
2023/08/14 03:41:30;;;;;;;48.70;16.52;;;;;;;;;;5010758;28;20391;-45
2023/08/14 03:43:57;;;;;;;48.35;15.52;;;;;;;;;;5010736;28;20026;-46
2023/08/14 03:46:24;;;;;;;46.40;14.82;;;;;;;;;;5014577;28;20582;-45
2023/08/14 03:48:51;;;;;;;49.05;15.13;;;;;;;;;;5014343;28;20060;-44
2023/08/14 03:51:18;;;;;;;42.25;14.38;;;;;;;;;;5014590;28;20029;-44
2023/08/14 03:53:45;;;;;;;48.55;15.35;;;;;;;;;;5014348;28;20045;-45
2023/08/14 03:56:12;;;;;;;50.85;15.30;;;;;;;;;;5014225;28;20018;-46
2023/08/14 03:58:39;;;;;;;45.92;13.55;;;;;;;;;;5014411;28;20032;-43
2023/08/14 04:01:06;;;;;;;52.42;14.10;;;;;;;;;;5014136;28;20153;-46
2023/08/14 04:03:33;;;;;;;48.28;13.35;;;;;;;;;;5014184;28;20026;-44
2023/08/14 04:06:01;;;;;;;53.67;14.68;;;;;;;;;;5014096;28;20569;-45
2023/08/14 04:08:28;;;;;;;43.75;12.63;;;;;;;;;;5014150;28;20041;-43
2023/08/14 04:10:57;;;;;;;44.22;13.25;;;;;;;;;;5001878;28;20034;-45
2023/08/14 04:13:25;;;;;;;48.95;13.63;;;;;;;;;;5013928;28;20145;-46
2023/08/14 04:15:59;;;;;;;41.03;12.95;;;;;;;;;;5013981;28;20030;-46
2023/08/14 04:18:27;;;;;;;36.45;12.88;;;;;;;;;;5013766;28;20468;-42
2023/08/14 04:20:54;;;;;;;40.70;12.90;;;;;;;;;;5013675;28;20029;-46
2023/08/14 04:23:22;;;;;;;39.47;12.63;;;;;;;;;;5013736;28;20030;-44
2023/08/14 04:25:49;;;;;;;35.25;12.38;;;;;;;;;;5013899;28;20034;-46
2023/08/14 04:28:16;;;;;;;38.35;12.10;;;;;;;;;;5011268;28;20036;-44
2023/08/14 04:30:43;;;;;;;34.17;11.02;;;;;;;;;;5013907;28;20084;-45
2023/08/14 04:33:10;;;;;;;31.25;11.32;;;;;;;;;;5013530;28;20041;-46
2023/08/14 04:35:37;;;;;;;40.72;12.63;;;;;;;;;;5013697;28;20036;-46
2023/08/14 04:38:05;;;;;;;39.72;12.52;;;;;;;;;;5013691;28;20672;-46
2023/08/14 04:40:32;;;;;;;34.35;10.80;;;;;;;;;;5013578;28;20026;-43
2023/08/14 04:42:59;;;;;;;35.35;11.38;;;;;;;;;;5013622;28;20492;-46
2023/08/14 04:45:26;;;;;;;34.80;11.18;;;;;;;;;;4996327;28;20532;-46
2023/08/14 04:47:53;;;;;;;39.88;11.75;;;;;;;;;;5014188;28;20488;-46
2023/08/14 04:50:20;;;;;;;34.85;11.13;;;;;;;;;;5013942;28;20018;-46
2023/08/14 04:52:47;;;;;;;32.08;10.32;;;;;;;;;;5013830;28;20096;-46
2023/08/14 04:55:14;;;;;;;36.28;11.25;;;;;;;;;;5013900;28;20034;-46
2023/08/14 04:57:41;;;;;;;34.50;10.57;;;;;;;;;;5012922;28;20050;-46
2023/08/14 05:00:08;;;;;;;30.25;10.40;;;;;;;;;;5013810;28;20037;-46
2023/08/14 05:02:35;;;;;;;32.33;9.27;;;;;;;;;;5013828;28;20038;-46
2023/08/14 05:05:02;;;;;;;34.33;10.68;;;;;;;;;;5013515;28;20507;-46
2023/08/14 05:07:29;;;;;;;28.90;10.15;;;;;;;;;;5013643;28;20033;-46
2023/08/14 05:09:56;;;;;;;32.35;9.93;;;;;;;;;;5013760;28;20026;-45
2023/08/14 05:12:23;;;;;;;30.50;9.57;;;;;;;;;;5013667;28;20366;-46
2023/08/14 05:14:52;;;;;;;25.30;9.55;;;;;;;;;;5013414;28;20042;-46
2023/08/14 05:17:19;;;;;;;24.55;9.00;;;;;;;;;;5013553;28;20030;-45
2023/08/14 05:19:46;;;;;;;22.23;8.90;;;;;;;;;;5013285;28;20061;-45
2023/08/14 05:22:13;;;;;;;25.65;9.90;;;;;;;;;;5013452;28;20048;-44
2023/08/14 05:24:40;;;;;;;23.63;8.68;;;;;;;;;;5013284;28;20522;-44
2023/08/14 05:27:07;;;;;;;24.15;7.97;;;;;;;;;;5013382;28;20063;-44
2023/08/14 05:29:34;;;;;;;21.80;8.52;;;;;;;;;;5013336;28;20022;-44
2023/08/14 05:32:02;;;;;;;28.13;9.73;;;;;;;;;;4995395;28;20034;-43
2023/08/14 05:34:29;;;;;;;24.23;8.50;;;;;;;;;;5013066;28;20079;-44
2023/08/14 05:36:56;;;;;;;24.85;8.38;;;;;;;;;;5013116;28;20132;-43
2023/08/14 05:39:23;;;;;;;21.95;8.60;;;;;;;;;;5013098;28;20029;-44
2023/08/14 05:41:50;;;;;;;24.92;8.18;;;;;;;;;;5013081;28;20017;-44
2023/08/14 05:44:17;;;;;;;21.45;8.18;;;;;;;;;;5012942;28;20038;-44
2023/08/14 05:46:44;;;;;;;23.50;8.63;;;;;;;;;;5013023;28;20079;-43
2023/08/14 05:49:11;;;;;;;19.63;8.00;;;;;;;;;;5012900;28;20037;-44
2023/08/14 05:51:38;;;;;;;24.77;7.88;;;;;;;;;;5012961;28;20041;-44
2023/08/14 05:54:05;;;;;;;27.45;8.10;;;;;;;;;;5012707;28;20029;-44
2023/08/14 05:56:32;;;;;;;23.15;8.48;;;;;;;;;;5012851;28;20041;-44
2023/08/14 05:58:59;;;;;;;22.45;7.97;;;;;;;;;;5012809;28;20423;-42
2023/08/14 06:01:26;;;;;;;18.48;6.90;;;;;;;;;;5010882;28;20093;-44
2023/08/14 06:03:54;;;;;;;22.77;6.93;;;;;;;;;;5012643;28;20786;-44
2023/08/14 06:06:21;;;;;;;16.60;6.70;;;;;;;;;;5012519;28;20049;-44
2023/08/14 06:08:48;;;;;;;20.98;7.13;;;;;;;;;;5012420;28;20021;-42
2023/08/14 06:11:15;;;;;;;19.20;7.07;;;;;;;;;;5012521;28;20021;-44
2023/08/14 06:13:42;;;;;;;19.75;6.90;;;;;;;;;;5012337;28;20061;-40
2023/08/14 06:16:09;;;;;;;25.10;7.20;;;;;;;;;;5012463;28;20026;-44
2023/08/14 06:18:36;;;;;;;21.55;7.03;;;;;;;;;;5012459;28;20096;-42
2023/08/14 06:21:03;;;;;;;18.73;7.60;;;;;;;;;;5012474;28;20076;-43
2023/08/14 06:23:30;;;;;;;16.65;6.40;;;;;;;;;;5012192;28;20108;-44
2023/08/14 06:25:58;;;;;;;15.18;6.45;;;;;;;;;;5012319;28;20080;-43
2023/08/14 06:28:25;;;;;;;18.30;6.28;;;;;;;;;;5012254;28;20022;-44
2023/08/14 06:30:52;;;;;;;18.08;6.50;;;;;;;;;;5012233;28;20025;-44
2023/08/14 06:33:19;;;;;;;16.65;6.38;;;;;;;;;;5012011;28;20030;-45
2023/08/14 06:35:46;;;;;;;18.88;6.47;;;;;;;;;;5012153;28;20040;-44
2023/08/14 06:38:13;;;;;;;17.65;6.50;;;;;;;;;;5012164;28;20034;-44
2023/08/14 06:40:40;;;;;;;15.77;5.68;;;;;;;;;;5012141;28;20105;-42
2023/08/14 06:43:07;;;;;;;18.83;6.28;;;;;;;;;;5012027;28;20065;-44
2023/08/14 06:45:34;;;;;;;15.63;5.70;;;;;;;;;;5012006;28;20032;-44
2023/08/14 06:48:01;;;;;;;15.10;5.97;;;;;;;;;;5012040;28;20030;-43
2023/08/14 06:50:28;;;;;;;15.35;5.45;;;;;;;;;;5012013;28;20025;-42
2023/08/14 06:52:55;;;;;;;16.35;5.97;;;;;;;;;;5011799;28;20112;-43
2023/08/14 06:55:22;;;;;;;14.98;5.85;;;;;;;;;;5011917;28;20030;-44
2023/08/14 06:57:49;;;;;;;16.55;6.13;;;;;;;;;;5011847;28;20020;-46
2023/08/14 07:00:16;;;;;;;13.15;5.50;;;;;;;;;;5011803;28;20628;-45
2023/08/14 07:02:46;;;;;;;14.55;5.78;;;;;;;;;;5011773;28;20029;-46
2023/08/14 07:05:13;;;;;;;14.23;5.97;;;;;;;;;;5011521;28;20393;-46
2023/08/14 07:07:41;;;;;;;16.15;5.82;;;;;;;;;;5011803;28;20029;-45
2023/08/14 07:10:08;;;;;;;14.25;5.32;;;;;;;;;;5011725;28;20022;-46
2023/08/14 07:12:35;;;;;;;9.75;3.58;;;;;;;;;;5011684;28;20110;-46
2023/08/14 07:15:02;;;;;;;14.63;5.18;;;;;;;;;;5011641;28;20032;-45
2023/08/14 07:17:29;;;;;;;12.57;4.95;;;;;;;;;;5011759;28;20026;-46
2023/08/14 07:19:56;;;;;;;9.82;4.50;;;;;;;;;;4995644;28;20080;-44
2023/08/14 07:22:23;;;;;;;12.32;4.93;;;;;;;;;;5015700;28;20026;-46
2023/08/14 07:24:50;;;;;;;11.90;4.80;;;;;;;;;;5015581;28;20029;-45
2023/08/14 07:27:17;;;;;;;11.23;4.60;;;;;;;;;;5015605;28;20026;-45
2023/08/14 07:29:44;;;;;;;12.70;5.20;;;;;;;;;;5015590;28;20022;-45
2023/08/14 07:32:11;;;;;;;13.40;4.75;;;;;;;;;;5015408;28;20550;-45
2023/08/14 07:34:38;;;;;;;10.32;4.60;;;;;;;;;;5015285;28;20037;-46
2023/08/14 07:37:05;;;;;;;14.07;4.55;;;;;;;;;;5015402;28;20037;-46
2023/08/14 07:39:32;;;;;;;11.68;4.95;;;;;;;;;;5015420;28;20037;-46
2023/08/14 07:41:59;;;;;;;17.63;5.20;;;;;;;;;;5015348;28;20392;-46
2023/08/14 07:44:26;;;;;;;11.98;4.78;;;;;;;;;;5015258;28;20029;-45
2023/08/14 07:46:53;;;;;;;11.63;4.30;;;;;;;;;;5015301;28;20060;-46
2023/08/14 07:49:20;;;;;;;11.07;4.53;;;;;;;;;;5015196;28;20020;-45
2023/08/14 07:51:47;;;;;;;10.98;4.00;;;;;;;;;;5015244;28;20030;-46
2023/08/14 07:54:14;;;;;;;13.02;4.65;;;;;;;;;;5014930;28;20030;-45
2023/08/14 07:56:41;;;;;;;10.85;4.35;;;;;;;;;;5015111;28;20480;-45
2023/08/14 07:59:08;;;;;;;11.35;4.20;;;;;;;;;;5015019;28;20049;-45
2023/08/14 08:01:35;;;;;;;12.68;4.30;;;;;;;;;;5014971;28;20018;-46
2023/08/14 08:04:02;;;;;;;11.48;4.57;;;;;;;;;;5014890;28;20057;-45
2023/08/14 08:06:29;;;;;;;12.35;4.63;;;;;;;;;;5014702;28;20073;-45
2023/08/14 08:08:56;;;;;;;12.90;4.05;;;;;;;;;;5014842;28;20104;-46
2023/08/14 08:11:23;;;;;;;10.02;4.32;;;;;;;;;;5014726;28;20026;-46
2023/08/14 08:13:50;;;;;;;11.60;4.82;;;;;;;;;;5014586;28;20080;-45
2023/08/14 08:16:17;;;;;;;11.10;4.13;;;;;;;;;;5014597;28;20034;-45
2023/08/14 08:18:44;;;;;;;8.88;3.95;;;;;;;;;;5014753;28;20034;-46
2023/08/14 08:21:11;;;;;;;9.18;4.07;;;;;;;;;;5014499;28;20022;-46
2023/08/14 08:23:38;;;;;;;13.90;4.13;;;;;;;;;;5014440;28;20037;-45
2023/08/14 08:26:05;;;;;;;9.98;3.60;;;;;;;;;;5014541;28;20029;-46
2023/08/14 08:28:32;;;;;;;10.68;4.20;;;;;;;;;;5014461;28;20033;-45
2023/08/14 08:30:59;;;;;;;8.15;3.70;;;;;;;;;;5014328;28;20032;-46
2023/08/14 08:33:26;;;;;;;11.55;3.88;;;;;;;;;;5014309;28;20110;-46
2023/08/14 08:35:53;;;;;;;11.80;4.20;;;;;;;;;;5014307;28;20472;-46
2023/08/14 08:38:20;;;;;;;11.40;3.70;;;;;;;;;;5014230;28;20034;-45
2023/08/14 08:40:48;;;;;;;13.32;4.32;;;;;;;;;;5014193;28;20037;-46
2023/08/14 08:43:16;;;;;;;9.68;3.70;;;;;;;;;;5014137;28;20036;-46
2023/08/14 08:45:46;;;;;;;13.55;3.88;;;;;;;;;;5014020;28;20124;-45
2023/08/14 08:48:16;;;;;;;16.23;4.25;;;;;;;;;;5014030;28;20026;-45
2023/08/14 08:50:43;;;;;;;9.05;3.80;;;;;;;;;;5013867;28;20034;-46
2023/08/14 08:53:10;;;;;;;9.70;3.55;;;;;;;;;;5013890;28;20526;-46
2023/08/14 08:55:37;;;;;;;6.88;3.17;;;;;;;;;;5013977;28;20030;-45
2023/08/14 08:58:05;;;;;;;10.13;4.07;;;;;;;;;;5013917;28;20018;-46
2023/08/14 09:00:32;;;;;;;9.50;3.40;;;;;;;;;;5013889;28;20072;-45
2023/08/14 09:02:59;;;;;;;10.85;3.40;;;;;;;;;;5013685;28;20746;-46
2023/08/14 09:05:26;;;;;;;12.85;3.85;;;;;;;;;;5013579;28;20057;-45
2023/08/14 09:07:53;;;;;;;11.93;3.80;;;;;;;;;;5013650;28;20037;-45
2023/08/14 09:10:20;;;;;;;9.20;3.20;;;;;;;;;;5013684;28;20022;-46
2023/08/14 09:12:46;;;;;;;10.75;3.65;;;;;;;;;;5013682;28;20029;-45
2023/08/14 09:15:14;;;;;;;9.05;3.53;;;;;;;;;;5013464;28;20403;-46
2023/08/14 09:17:41;;;;;;;10.18;3.33;;;;;;;;;;5013598;28;20022;-46
2023/08/14 09:20:14;;;;;;;12.75;3.38;;;;;;;;;;5013514;28;20022;-45
2023/08/14 09:22:41;;;;;;;9.38;3.13;;;;;;;;;;5013223;28;20104;-46
2023/08/14 09:25:08;;;;;;;14.20;3.58;;;;;;;;;;5013330;28;20814;-44
2023/08/14 09:27:35;;;;;;;15.05;3.97;;;;;;;;;;5013334;28;20130;-44
2023/08/14 09:30:02;;;;;;;10.30;3.58;;;;;;;;;;5013249;28;20072;-42
2023/08/14 09:32:29;;;;;;;9.25;3.33;;;;;;;;;;5013230;28;20018;-44
2023/08/14 09:35:00;;;;;;;9.52;3.55;;;;;;;;;;5013176;28;20026;-44
2023/08/14 09:37:27;;;;;;;11.25;3.85;;;;;;;;;;5013091;28;20033;-42
2023/08/14 09:40:13;;;;;;;9.23;3.25;;;;;;;;;;5013098;28;20026;-44
2023/08/14 09:42:40;;;;;;;11.35;2.97;;;;;;;;;;5012466;28;20427;-43
2023/08/14 09:45:07;;;;;;;13.90;3.42;;;;;;;;;;5013060;28;20026;-43
2023/08/14 09:47:35;;;;;;;14.70;3.25;;;;;;;;;;5012970;28;20034;-44
2023/08/14 09:50:03;;;;;;;14.50;3.10;;;;;;;;;;5012734;28;20033;-44
2023/08/14 09:52:30;;;;;;;16.25;3.90;;;;;;;;;;5012591;28;20022;-42
2023/08/14 09:54:58;;;;;;;22.13;3.72;;;;;;;;;;5012828;28;20029;-44
2023/08/14 09:57:25;;;;;;;13.52;3.65;;;;;;;;;;5012881;28;20044;-44
2023/08/14 09:59:53;;;;;;;16.17;3.80;;;;;;;;;;5012764;28;20022;-44
2023/08/14 10:02:22;;;;;;;15.65;4.00;;;;;;;;;;5012443;28;20081;-44
2023/08/14 10:04:50;;;;;;;19.10;3.92;;;;;;;;;;5012303;28;20053;-45
2023/08/14 10:07:20;;;;;;;23.50;4.35;;;;;;;;;;5012702;28;20029;-45
2023/08/14 10:09:52;;;;;;;30.92;4.55;;;;;;;;;;5012563;28;20026;-46
2023/08/14 10:12:22;;;;;;;22.80;4.00;;;;;;;;;;5012527;28;20369;-46
2023/08/14 10:15:10;;;;;;;25.67;4.40;;;;;;;;;;5012108;28;20807;-45
2023/08/14 10:17:49;;;;;;;26.42;4.63;;;;;;;;;;5012423;28;20072;-46
2023/08/14 10:20:17;;;;;;;20.98;4.55;;;;;;;;;;4992761;28;20034;-44
2023/08/14 10:22:45;;;;;;;25.55;4.38;;;;;;;;;;4992831;28;20026;-44
2023/08/14 10:25:12;;;;;;;27.67;4.28;;;;;;;;;;4992668;28;20077;-41
2023/08/14 10:27:40;;;;;;;23.00;3.97;;;;;;;;;;4992704;28;20552;-44
2023/08/14 10:30:08;;;;;;;22.17;3.42;;;;;;;;;;4992554;28;20389;-43
2023/08/14 10:32:35;;;;;;;28.10;4.75;;;;;;;;;;4997586;28;20096;-45
2023/08/14 10:35:03;;;;;;;24.20;4.18;;;;;;;;;;4992396;28;20109;-46
2023/08/14 10:37:51;;;;;;;20.63;3.95;;;;;;;;;;4992578;28;20077;-45
2023/08/14 10:40:25;;;;;;;21.77;4.10;;;;;;;;;;4993882;28;20030;-45
2023/08/14 10:42:53;;;;;;;18.63;3.95;;;;;;;;;;5008827;28;20033;-43
2023/08/14 10:45:24;;;;;;;23.55;4.18;;;;;;;;;;5011745;28;20034;-45
2023/08/14 10:47:51;;;;;;;18.98;3.97;;;;;;;;;;5011306;28;20438;-44
2023/08/14 10:50:23;;;;;;;20.83;3.67;;;;;;;;;;5011258;28;20026;-45
2023/08/14 10:52:54;;;;;;;25.25;4.10;;;;;;;;;;4992227;28;20037;-46
2023/08/14 10:55:25;;;;;;;26.02;4.40;;;;;;;;;;4991261;28;20076;-46
2023/08/14 10:57:55;;;;;;;30.60;4.43;;;;;;;;;;5003999;28;20101;-46
2023/08/14 11:00:25;;;;;;;22.67;5.03;;;;;;;;;;5011632;28;20033;-45
2023/08/14 11:03:06;;;;;;;27.98;4.53;;;;;;;;;;5011727;28;20022;-45
2023/08/14 11:05:36;;;;;;;26.27;4.93;;;;;;;;;;5010928;28;20046;-46
2023/08/14 11:08:04;;;;;;;24.60;4.38;;;;;;;;;;5011512;28;20054;-45
2023/08/14 11:10:33;;;;;;;30.65;4.75;;;;;;;;;;5011599;28;20021;-45
2023/08/14 11:13:01;;;;;;;45.53;6.07;;;;;;;;;;5007442;28;20889;-37
2023/08/14 11:15:31;;;;;;;28.35;4.95;;;;;;;;;;5010942;28;20034;-41
2023/08/14 11:17:59;;;;;;;41.28;6.30;;;;;;;;;;5010766;28;20541;-36
2023/08/14 11:20:29;;;;;;;54.40;6.53;;;;;;;;;;5011047;28;20058;-34
2023/08/14 11:22:57;;;;;;;48.83;5.80;;;;;;;;;;5009742;28;20060;-37
2023/08/14 11:25:24;;;;;;;36.60;5.93;;;;;;;;;;5011527;28;20025;-39
2023/08/14 11:27:55;;;;;;;48.53;7.25;;;;;;;;;;5011590;28;20029;-40
2023/08/14 11:30:26;;;;;;;42.33;5.78;;;;;;;;;;5011449;28;20032;-38
2023/08/14 11:32:54;;;;;;;47.05;6.05;;;;;;;;;;5009703;28;20539;-36
2023/08/14 11:35:21;;;;;;;39.55;6.32;;;;;;;;;;5011335;28;20022;-35
2023/08/14 11:37:48;;;;;;;54.80;6.78;;;;;;;;;;5011110;28;20026;-34
2023/08/14 11:40:15;;;;;;;55.70;7.13;;;;;;;;;;5011086;28;20484;-37
2023/08/14 11:42:43;;;;;;;47.35;6.57;;;;;;;;;;5009993;28;20030;-40
2023/08/14 11:45:11;;;;;;;47.95;6.40;;;;;;;;;;5008910;28;20117;-40
2023/08/14 11:47:39;;;;;;;44.42;6.35;;;;;;;;;;5010988;28;20032;-39
2023/08/14 11:50:07;;;;;;;41.50;6.80;;;;;;;;;;5011191;28;20097;-40
2023/08/14 11:52:38;;;;;;;42.25;6.70;;;;;;;;;;5011281;28;20018;-39
2023/08/14 11:55:05;;;;;;;39.03;5.82;;;;;;;;;;5009927;28;20395;-38
2023/08/14 11:57:33;;;;;;;46.45;6.43;;;;;;;;;;5010846;28;20037;-42
2023/08/14 12:00:00;;;;;;;41.42;5.60;;;;;;;;;;5011077;28;20084;-42
2023/08/14 12:02:28;;;;;;;49.63;6.10;;;;;;;;;;5011209;28;20029;-40
2023/08/14 12:04:56;;;;;;;33.83;5.85;;;;;;;;;;5009551;28;20073;-40
2023/08/14 12:07:24;;;;;;;38.85;5.72;;;;;;;;;;5014403;28;20030;-40
2023/08/14 12:09:51;;;;;;;71.15;8.15;;;;;;;;;;5014494;28;20038;-37
2023/08/14 12:12:18;;;;;;;42.15;6.07;;;;;;;;;;5014576;28;20028;-35
2023/08/14 12:14:47;;;;;;;40.92;6.22;;;;;;;;;;5014495;28;20590;-42
2023/08/14 12:17:16;;;;;;;35.72;5.43;;;;;;;;;;5012676;28;20388;-41
2023/08/14 12:19:43;;;;;;;46.63;5.68;;;;;;;;;;5013829;28;20036;-34
2023/08/14 12:22:11;;;;;;;30.58;5.07;;;;;;;;;;5013701;28;20033;-38
2023/08/14 12:24:41;;;;;;;47.75;6.40;;;;;;;;;;5014116;28;20041;-39
2023/08/14 12:27:34;;;;;;;38.92;5.60;;;;;;;;;;5012774;28;20072;-36
2023/08/14 12:30:02;;;;;;;29.17;5.70;;;;;;;;;;5010877;28;20049;-40
2023/08/14 12:32:29;;;;;;;27.98;5.55;;;;;;;;;;5014017;28;20601;-40
2023/08/14 12:34:56;;;;;;;31.58;5.30;;;;;;;;;;4995947;28;20487;-37
2023/08/14 12:37:23;;;;;;;27.55;4.85;;;;;;;;;;5011423;28;20045;-39
2023/08/14 12:39:52;;;;;;;25.10;4.10;;;;;;;;;;5007207;28;20026;-36
2023/08/14 12:42:20;;;;;;;33.50;4.93;;;;;;;;;;5012723;28;20117;-37
2023/08/14 12:44:47;;;;;;;29.23;5.05;;;;;;;;;;5014081;28;20026;-37
2023/08/14 12:47:14;;;;;;;31.70;5.07;;;;;;;;;;5013985;28;20058;-37
2023/08/14 12:49:41;;;;;;;23.63;4.43;;;;;;;;;;5007916;28;20034;-37
2023/08/14 12:52:08;;;;;;;21.55;4.35;;;;;;;;;;4999502;28;20485;-37
2023/08/14 12:54:35;;;;;;;25.92;5.00;;;;;;;;;;4994225;28;20400;-37
2023/08/14 12:57:02;;;;;;;29.98;5.20;;;;;;;;;;4994421;28;20113;-37
2023/08/14 12:59:28;;;;;;;31.73;5.53;;;;;;;;;;4994122;28;20157;-37
2023/08/14 13:01:55;;;;;;;32.28;4.72;;;;;;;;;;4994068;28;20027;-38
2023/08/14 13:04:22;;;;;;;19.80;4.82;;;;;;;;;;5012681;28;20048;-38
2023/08/14 13:06:50;;;;;;;27.20;5.07;;;;;;;;;;5013463;28;20192;-37
2023/08/14 13:09:17;;;;;;;26.60;5.25;;;;;;;;;;5013406;28;20041;-38
2023/08/14 13:11:44;;;;;;;20.65;4.72;;;;;;;;;;5013411;28;20033;-37
2023/08/14 13:14:11;;;;;;;24.48;5.03;;;;;;;;;;5011677;28;20034;-37
2023/08/14 13:16:38;;;;;;;48.50;16.90;;;;;;;;;;5012506;28;20087;-37
2023/08/14 13:19:05;;;;;;;72.63;36.25;;;;;;;;;;5012573;28;20041;-37
2023/08/14 13:21:32;;;;;;;105.88;58.50;;;;;;;;;;5013302;28;20058;-37
2023/08/14 13:23:59;;;;;;;138.77;77.40;;;;;;;;;;5013157;28;20038;-38
2023/08/14 13:26:26;;;;;;;146.50;84.50;;;;;;;;;;5013264;28;20029;-38
2023/08/14 13:28:53;;;;;;;166.27;96.90;;;;;;;;;;5013109;28;20476;-38
2023/08/14 13:31:20;;;;;;;176.45;99.55;;;;;;;;;;5013017;28;20069;-37
2023/08/14 13:33:47;;;;;;;170.73;96.65;;;;;;;;;;5012408;28;20042;-38
2023/08/14 13:36:14;;;;;;;158.60;92.70;;;;;;;;;;5012963;28;20030;-37
2023/08/14 13:38:41;;;;;;;164.45;91.63;;;;;;;;;;5012548;28;20026;-37
2023/08/14 13:41:09;;;;;;;152.50;87.47;;;;;;;;;;5012849;28;20064;-37
2023/08/14 13:43:37;;;;;;;147.93;84.43;;;;;;;;;;5012396;28;20084;-36
2023/08/14 13:46:04;;;;;;;136.68;78.70;;;;;;;;;;5012753;28;20109;-37
2023/08/14 13:48:31;;;;;;;131.90;78.95;;;;;;;;;;5012678;28;20061;-37
2023/08/14 13:50:58;;;;;;;129.25;74.25;;;;;;;;;;5012682;28;20117;-36
2023/08/14 13:53:25;;;;;;;127.22;74.85;;;;;;;;;;5012274;28;20041;-37
2023/08/14 13:55:52;;;;;;;120.40;70.80;;;;;;;;;;5012590;28;20167;-37
2023/08/14 13:58:19;;;;;;;124.20;68.15;;;;;;;;;;5012538;28;20076;-37
2023/08/14 14:00:46;;;;;;;120.82;64.80;;;;;;;;;;5012586;28;20423;-37
2023/08/14 14:03:13;;;;;;;109.07;63.83;;;;;;;;;;5012348;28;20029;-37
2023/08/14 14:05:40;;;;;;;109.32;62.30;;;;;;;;;;5012063;28;20099;-37
2023/08/14 14:08:07;;;;;;;106.90;61.13;;;;;;;;;;5012577;28;20095;-37
2023/08/14 14:10:34;;;;;;;107.90;59.92;;;;;;;;;;5012307;28;20022;-41
2023/08/14 14:13:01;;;;;;;101.70;58.15;;;;;;;;;;5012363;28;20030;-37
2023/08/14 14:15:28;;;;;;;99.60;57.70;;;;;;;;;;5012251;28;20049;-37
2023/08/14 14:17:56;;;;;;;99.10;54.70;;;;;;;;;;5012288;28;20032;-37
2023/08/14 14:20:23;;;;;;;99.93;54.40;;;;;;;;;;5011821;28;20033;-37
2023/08/14 14:22:50;;;;;;;95.47;50.65;;;;;;;;;;5012056;28;20057;-38
2023/08/14 14:25:17;;;;;;;93.25;51.72;;;;;;;;;;5007049;28;20034;-38